Time;durP1;ratioP1;P1;durP2;ratioP2;P2;SDS_P1;SDS_P2;PMS_P1;PMS_P2;Temp;Humidity;BMP_temperature;BMP_pressure;BME280_temperature;BME280_humidity;BME280_pressure;Samples;Min_cycle;Max_cycle;Signal;HPM_P1;HPM_P2
2022/10/29 00:02:00;;;;;;;11.50;4.60;;;23.30;63.30;;;;;;5106540;28;20066;-69
2022/10/29 00:04:26;;;;;;;13.23;5.65;;;23.30;63.30;;;;;;5103125;28;20528;-69
2022/10/29 00:06:52;;;;;;;15.45;5.47;;;23.30;63.40;;;;;;5108937;28;20535;-69
2022/10/29 00:09:19;;;;;;;9.80;4.40;;;23.30;63.50;;;;;;5106431;28;20043;-70
2022/10/29 00:11:45;;;;;;;10.15;3.95;;;23.30;63.70;;;;;;5105011;28;20020;-69
2022/10/29 00:14:12;;;;;;;13.82;4.53;;;23.30;63.90;;;;;;5105991;28;20070;-70
2022/10/29 00:16:39;;;;;;;20.73;4.25;;;23.20;64.00;;;;;;5105731;28;20054;-69
2022/10/29 00:19:06;;;;;;;11.48;3.67;;;23.20;64.10;;;;;;5107366;28;20048;-68
2022/10/29 00:21:33;;;;;;;19.60;5.55;;;23.20;64.20;;;;;;5103366;28;20028;-69
2022/10/29 00:23:59;;;;;;;11.07;4.28;;;23.20;64.30;;;;;;5105604;28;20038;-69
2022/10/29 00:26:28;;;;;;;11.38;4.25;;;23.20;64.40;;;;;;5108064;28;20063;-68
2022/10/29 00:28:56;;;;;;;15.15;4.15;;;23.20;64.50;;;;;;5105356;28;20050;-68
2022/10/29 00:31:23;;;;;;;15.48;5.13;;;23.20;64.60;;;;;;5105992;28;20023;-69
2022/10/29 00:33:52;;;;;;;15.23;5.13;;;23.20;64.70;;;;;;5107088;28;20024;-69
2022/10/29 00:36:27;;;;;;;11.70;5.15;;;23.20;64.70;;;;;;5109118;28;20012;-69
2022/10/29 00:38:53;;;;;;;;;;;23.10;64.70;;;;;;5107084;28;20035;-69
2022/10/29 00:41:22;;;;;;;14.15;4.72;;;23.10;64.70;;;;;;5104169;28;19908;-69
2022/10/29 00:43:52;;;;;;;12.85;4.43;;;23.10;64.70;;;;;;5109038;28;20023;-69
2022/10/29 00:46:42;;;;;;;9.35;4.00;;;23.10;64.70;;;;;;5104074;28;20030;-69
2022/10/29 00:49:10;;;;;;;15.48;4.03;;;23.10;64.80;;;;;;5107561;28;20031;-69
2022/10/29 00:51:37;;;;;;;12.38;3.85;;;23.10;65.00;;;;;;5103373;28;20043;-69
2022/10/29 00:54:08;;;;;;;13.63;4.43;;;23.10;65.10;;;;;;5103859;28;20118;-70
2022/10/29 00:56:46;;;;;;;11.10;4.35;;;23.10;65.40;;;;;;5105609;28;20466;-69
2022/10/29 00:59:16;;;;;;;13.77;4.82;;;23.00;65.30;;;;;;5103852;28;20472;-69
2022/10/29 01:01:45;;;;;;;11.50;3.75;;;23.00;65.40;;;;;;5087781;28;20031;-69
2022/10/29 01:04:12;;;;;;;10.02;4.53;;;23.00;65.30;;;;;;5104437;28;20015;-69
2022/10/29 01:06:45;;;;;;;11.20;4.13;;;23.00;65.50;;;;;;5106181;28;20042;-69
2022/10/29 01:09:12;;;;;;;10.77;5.18;;;23.00;65.60;;;;;;5103333;28;20027;-69
2022/10/29 01:11:54;;;;;;;17.27;4.88;;;23.00;65.60;;;;;;5102629;28;20015;-69
2022/10/29 01:14:36;;;;;;;9.07;4.10;;;23.00;65.60;;;;;;5102543;28;20053;-68
2022/10/29 01:17:17;;;;;;;9.95;4.10;;;23.00;65.50;;;;;;5105338;28;20363;-69
2022/10/29 01:20:20;;;;;;;10.48;3.13;;;23.00;65.50;;;;;;5107419;28;20681;-69
2022/10/29 01:22:59;;;;;;;9.75;2.90;;;23.00;65.50;;;;;;5106366;28;20028;-69
2022/10/29 01:25:43;;;;;;;6.97;3.10;;;22.90;65.50;;;;;;5104234;28;20087;-69
2022/10/29 01:28:44;;;;;;;12.60;3.85;;;22.90;65.40;;;;;;5107667;28;20439;-70
2022/10/29 01:31:34;;;;;;;10.68;3.38;;;23.00;65.50;;;;;;5092158;28;20139;-68
2022/10/29 01:34:24;;;;;;;15.73;4.28;;;22.90;65.50;;;;;;5104786;28;20083;-68
2022/10/29 01:36:55;;;;;;;8.35;3.75;;;22.90;65.50;;;;;;5103209;28;20397;-69
2022/10/29 01:39:28;;;;;;;16.67;4.15;;;22.90;65.70;;;;;;5099389;28;20062;-68
2022/10/29 01:42:22;;;;;;;11.27;3.58;;;22.90;65.60;;;;;;5087140;28;20807;-68
2022/10/29 01:45:26;;;;;;;10.93;4.10;;;22.90;65.60;;;;;;5100515;28;20505;-68
2022/10/29 01:47:59;;;;;;;18.98;3.95;;;22.90;65.70;;;;;;5098292;28;20067;-68
2022/10/29 01:50:26;;;;;;;18.85;5.93;;;22.90;66.50;;;;;;5103861;28;20099;-68
2022/10/29 01:52:54;;;;;;;15.88;4.88;;;22.80;65.80;;;;;;5100714;28;20074;-70
2022/10/29 01:55:28;;;;;;;19.13;5.38;;;22.90;66.00;;;;;;5096447;28;20019;-69
2022/10/29 01:57:55;;;;;;;20.45;6.55;;;22.80;66.00;;;;;;5097060;28;20048;-69
2022/10/29 02:00:23;;;;;;;18.38;5.28;;;22.80;66.50;;;;;;5093880;28;20065;-68
2022/10/29 02:03:14;;;;;;;14.38;5.50;;;22.70;66.60;;;;;;5098093;28;20034;-69
2022/10/29 02:06:11;;;;;;;16.27;5.55;;;22.70;66.90;;;;;;5096930;28;20615;-70
2022/10/29 02:09:05;;;;;;;15.40;6.10;;;22.70;67.00;;;;;;5095459;28;20454;-69
2022/10/29 02:11:51;;;;;;;15.60;6.15;;;22.60;67.00;;;;;;5099449;28;20027;-67
2022/10/29 02:14:38;;;;;;;16.67;5.03;;;22.60;67.10;;;;;;5102762;28;20035;-68
2022/10/29 02:17:06;;;;;;;16.42;6.85;;;22.60;67.20;;;;;;5094407;28;20545;-67
2022/10/29 02:19:34;;;;;;;13.52;6.10;;;22.60;67.30;;;;;;5097095;28;20023;-69
2022/10/29 02:22:01;;;;;;;14.77;4.93;;;22.60;67.50;;;;;;5099227;28;20540;-69
2022/10/29 02:24:27;;;;;;;10.30;4.97;;;22.50;67.60;;;;;;5097845;28;20035;-69
2022/10/29 02:26:54;;;;;;;27.83;6.22;;;22.50;67.80;;;;;;5099590;28;20508;-70
2022/10/29 02:29:31;;;;;;;29.75;6.60;;;22.50;68.30;;;;;;5099023;28;20409;-70
2022/10/29 02:31:58;;;;;;;22.40;7.40;;;22.50;69.00;;;;;;5096820;28;20028;-68
2022/10/29 02:34:25;;;;;;;19.48;5.13;;;22.50;68.40;;;;;;5101466;28;20007;-69
2022/10/29 02:36:51;;;;;;;17.20;5.70;;;22.50;68.00;;;;;;5105119;28;20019;-69
2022/10/29 02:39:17;;;;;;;29.13;7.80;;;22.50;67.50;;;;;;5102248;28;20016;-69
2022/10/29 02:41:44;;;;;;;14.45;5.22;;;22.40;67.30;;;;;;5102805;28;20549;-68
2022/10/29 02:44:25;;;;;;;18.45;6.13;;;22.40;67.10;;;;;;5102924;28;20059;-71
2022/10/29 02:46:51;;;;;;;28.85;9.25;;;22.40;67.10;;;;;;5106137;28;20074;-69
2022/10/29 02:49:18;;;;;;;17.15;5.53;;;22.40;67.00;;;;;;5100828;28;20072;-69
2022/10/29 02:51:44;;;;;;;20.65;7.22;;;22.40;67.10;;;;;;5105855;28;20058;-68
2022/10/29 02:54:14;;;;;;;17.80;7.55;;;22.40;67.00;;;;;;5099021;28;20024;-69
2022/10/29 02:56:41;;;;;;;18.50;5.90;;;22.30;66.90;;;;;;5101813;28;20190;-68
2022/10/29 02:59:07;;;;;;;20.95;5.63;;;22.30;67.00;;;;;;5091857;28;20497;-68
2022/10/29 03:01:36;;;;;;;15.90;6.28;;;22.30;67.00;;;;;;5104779;28;20055;-68
2022/10/29 03:04:03;;;;;;;18.08;6.20;;;22.30;66.90;;;;;;5096737;28;20023;-68
2022/10/29 03:06:30;;;;;;;12.80;7.28;;;22.30;66.90;;;;;;5101463;28;20042;-68
2022/10/29 03:08:56;;;;;;;21.52;6.20;;;22.30;66.80;;;;;;5104815;28;20523;-70
2022/10/29 03:11:23;;;;;;;23.13;12.57;;;22.20;66.80;;;;;;5103448;28;20036;-70
2022/10/29 03:13:52;;;;;;;36.78;18.02;;;22.20;67.10;;;;;;5098286;28;20020;-70
2022/10/29 03:16:18;;;;;;;25.52;12.63;;;22.20;67.30;;;;;;5099533;28;20096;-69
2022/10/29 03:18:51;;;;;;;26.65;11.73;;;22.20;67.10;;;;;;5096953;28;20035;-69
2022/10/29 03:21:17;;;;;;;14.10;6.85;;;22.20;67.00;;;;;;5101792;28;20019;-70
2022/10/29 03:23:44;;;;;;;17.40;7.70;;;22.10;66.90;;;;;;5097220;28;20650;-68
2022/10/29 03:26:13;;;;;;;15.93;7.03;;;22.10;66.90;;;;;;5099404;28;20016;-70
2022/10/29 03:28:41;;;;;;;15.85;6.88;;;22.10;66.80;;;;;;5100526;28;20020;-69
2022/10/29 03:31:47;;;;;;;13.57;5.35;;;22.10;66.80;;;;;;5097854;28;20111;-69
2022/10/29 03:34:53;;;;;;;17.33;6.85;;;22.00;66.70;;;;;;5097123;28;20078;-68
2022/10/29 03:38:00;;;;;;;21.38;8.57;;;22.00;66.60;;;;;;5095780;28;20099;-68
2022/10/29 03:40:26;;;;;;;;;;;22.00;66.60;;;;;;5099517;28;20774;-69
2022/10/29 03:42:52;;;;;;;19.40;6.25;;;22.00;66.50;;;;;;5102278;28;19903;-71
2022/10/29 03:45:19;;;;;;;16.38;6.18;;;21.90;66.40;;;;;;5100503;28;20012;-68
2022/10/29 03:47:45;;;;;;;21.35;7.20;;;21.90;66.30;;;;;;5104217;28;20035;-70
2022/10/29 03:50:12;;;;;;;21.20;9.20;;;21.90;66.80;;;;;;5098838;28;20023;-69
2022/10/29 03:52:39;;;;;;;17.50;8.20;;;21.90;66.90;;;;;;5098323;28;20028;-69
2022/10/29 03:55:06;;;;;;;19.30;6.93;;;21.90;66.80;;;;;;5078177;28;20031;-69
2022/10/29 03:58:12;;;;;;;23.10;7.13;;;21.90;66.60;;;;;;5095319;28;20039;-68
2022/10/29 04:01:18;;;;;;;17.00;5.47;;;21.90;66.40;;;;;;5099033;28;20412;-69
2022/10/29 04:04:27;;;;;;;17.00;6.20;;;21.80;66.30;;;;;;5097989;28;20040;-68
2022/10/29 04:07:36;;;;;;;14.07;5.78;;;21.80;66.30;;;;;;5096968;28;20028;-70
2022/10/29 04:10:42;;;;;;;15.88;5.25;;;21.80;66.40;;;;;;5099285;28;20038;-69
2022/10/29 04:13:48;;;;;;;12.27;4.53;;;21.80;66.40;;;;;;5097695;28;20031;-70
2022/10/29 04:16:54;;;;;;;11.65;4.32;;;21.80;66.40;;;;;;5098556;28;20012;-69
2022/10/29 04:19:21;;;;;;;14.00;4.13;;;21.80;66.50;;;;;;5098829;28;20095;-69
2022/10/29 04:21:47;;;;;;;14.52;4.72;;;21.80;66.60;;;;;;5099443;28;20028;-68
2022/10/29 04:24:14;;;;;;;10.30;5.53;;;21.80;66.80;;;;;;5100724;28;20332;-68
2022/10/29 04:26:44;;;;;;;17.83;5.97;;;21.80;66.90;;;;;;5101170;28;20039;-68
2022/10/29 04:29:10;;;;;;;13.48;4.55;;;21.70;66.90;;;;;;5106016;28;20023;-68
2022/10/29 04:31:37;;;;;;;13.15;3.97;;;21.70;67.00;;;;;;5105148;28;20008;-70
2022/10/29 04:34:05;;;;;;;17.20;5.78;;;21.80;67.00;;;;;;5096964;28;20028;-68
2022/10/29 04:37:11;;;;;;;20.77;6.28;;;21.70;66.90;;;;;;5100251;28;20103;-69
2022/10/29 04:39:37;;;;;;;25.45;13.65;;;21.70;67.00;;;;;;5100500;28;20088;-69
2022/10/29 04:42:04;;;;;;;25.30;14.65;;;21.80;67.60;;;;;;5097168;28;20043;-70
2022/10/29 04:44:40;;;;;;;21.30;10.68;;;21.80;67.70;;;;;;5099411;28;20031;-70
2022/10/29 04:47:06;;;;;;;14.15;6.10;;;21.80;67.80;;;;;;5099039;28;20035;-69
2022/10/29 04:49:33;;;;;;;15.10;7.78;;;21.80;68.00;;;;;;5097318;28;20020;-68
2022/10/29 04:51:59;;;;;;;16.15;6.25;;;21.80;68.00;;;;;;5096761;28;20028;-69
2022/10/29 04:54:25;;;;;;;20.20;7.25;;;21.80;67.70;;;;;;5098668;28;20023;-69
2022/10/29 04:56:52;;;;;;;16.75;6.30;;;21.80;67.40;;;;;;5094249;28;20043;-69
2022/10/29 04:59:18;;;;;;;13.05;6.32;;;21.80;67.30;;;;;;5087930;28;20406;-67
2022/10/29 05:01:45;;;;;;;16.60;7.53;;;21.80;67.20;;;;;;5097089;28;20030;-69
2022/10/29 05:04:12;;;;;;;10.95;4.90;;;21.80;67.20;;;;;;5098374;28;20055;-69
2022/10/29 05:06:38;;;;;;;12.88;6.15;;;21.80;67.20;;;;;;5100330;28;20036;-70
2022/10/29 05:09:05;;;;;;;16.05;5.00;;;21.80;67.30;;;;;;5102986;28;20106;-70
2022/10/29 05:11:31;;;;;;;21.45;9.35;;;21.80;67.30;;;;;;5100609;28;20008;-70
2022/10/29 05:13:58;;;;;;;34.67;12.88;;;21.80;67.80;;;;;;5101358;28;20019;-69
2022/10/29 05:16:24;;;;;;;21.23;8.00;;;21.80;68.20;;;;;;5098408;28;20023;-69
2022/10/29 05:18:51;;;;;;;22.65;6.82;;;21.80;68.50;;;;;;5099138;28;20016;-68
2022/10/29 05:21:17;;;;;;;13.15;6.30;;;21.80;68.50;;;;;;5092787;28;20058;-69
2022/10/29 05:23:44;;;;;;;13.73;5.65;;;21.80;69.10;;;;;;5100156;28;20035;-68
2022/10/29 05:26:10;;;;;;;16.23;5.63;;;21.80;69.30;;;;;;5097295;28;20016;-69
2022/10/29 05:28:36;;;;;;;21.65;6.90;;;21.90;69.50;;;;;;5095949;28;20425;-70
2022/10/29 05:31:03;;;;;;;19.08;6.88;;;21.90;69.60;;;;;;5103060;28;20106;-68
2022/10/29 05:33:29;;;;;;;28.15;7.50;;;22.00;69.60;;;;;;5104655;28;20485;-69
2022/10/29 05:35:58;;;;;;;33.15;15.65;;;22.00;69.70;;;;;;5104058;28;20039;-68
2022/10/29 05:38:24;;;;;;;29.27;15.15;;;22.00;70.40;;;;;;5089265;28;20047;-68
2022/10/29 05:40:51;;;;;;;20.52;11.18;;;22.10;70.60;;;;;;5104910;28;20802;-70
2022/10/29 05:43:17;;;;;;;22.67;8.50;;;22.00;70.20;;;;;;5104072;28;20047;-74
2022/10/29 05:46:23;;;;;;;20.25;7.50;;;22.10;70.00;;;;;;5100032;28;20429;-71
2022/10/29 05:49:29;;;;;;;21.92;8.48;;;22.10;70.00;;;;;;5105046;28;20081;-70
2022/10/29 05:52:36;;;;;;;18.23;7.38;;;22.10;70.00;;;;;;5105203;28;20463;-70
2022/10/29 05:55:42;;;;;;;23.08;8.63;;;22.20;69.80;;;;;;5105916;28;20038;-67
2022/10/29 05:58:51;;;;;;;33.10;8.00;;;22.20;69.60;;;;;;5103760;28;20126;-67
2022/10/29 06:01:57;;;;;;;16.35;5.50;;;22.30;70.20;;;;;;5104768;28;20038;-67
2022/10/29 06:05:03;;;;;;;21.08;6.22;;;22.30;69.30;;;;;;5099699;28;20077;-70
2022/10/29 06:07:29;;;;;;;11.52;4.97;;;22.30;69.10;;;;;;5103060;28;20655;-72
2022/10/29 06:09:56;;;;;;;16.05;6.22;;;22.40;69.00;;;;;;5109341;28;20382;-71
2022/10/29 06:12:22;;;;;;;14.93;5.18;;;22.40;68.90;;;;;;5102531;28;20084;-68
2022/10/29 06:14:48;;;;;;;42.42;11.57;;;22.40;68.80;;;;;;5106499;28;20920;-71
2022/10/29 06:17:15;;;;;;;19.52;5.25;;;22.50;68.80;;;;;;5107433;28;20024;-70
2022/10/29 06:19:41;;;;;;;13.00;5.32;;;22.50;68.90;;;;;;5111624;28;20032;-69
2022/10/29 06:22:08;;;;;;;24.85;7.93;;;22.50;68.80;;;;;;5109183;28;20486;-69
2022/10/29 06:24:34;;;;;;;22.15;5.88;;;22.60;69.10;;;;;;5108770;28;20019;-67
2022/10/29 06:27:01;;;;;;;24.15;5.15;;;22.60;68.80;;;;;;5108040;28;20035;-67
2022/10/29 06:29:27;;;;;;;18.83;4.30;;;22.60;68.70;;;;;;5108850;28;20023;-72
2022/10/29 06:31:54;;;;;;;22.70;4.45;;;22.70;68.40;;;;;;5106648;28;20115;-71
2022/10/29 06:34:20;;;;;;;34.28;7.65;;;22.70;68.20;;;;;;5106359;28;20111;-69
2022/10/29 06:36:46;;;;;;;25.27;8.40;;;22.80;68.10;;;;;;5108642;28;20074;-70
2022/10/29 06:39:13;;;;;;;21.83;9.23;;;22.80;67.90;;;;;;5109122;28;20024;-70
2022/10/29 06:41:39;;;;;;;24.42;9.57;;;22.90;67.80;;;;;;5105880;28;20035;-69
2022/10/29 06:44:06;;;;;;;15.75;7.47;;;22.90;67.60;;;;;;5103412;28;20034;-70
2022/10/29 06:46:35;;;;;;;13.23;6.10;;;22.90;67.30;;;;;;5108066;28;20063;-71
2022/10/29 06:49:01;;;;;;;17.80;7.80;;;23.00;66.90;;;;;;5103845;28;20069;-68
2022/10/29 06:51:28;;;;;;;14.45;6.22;;;23.00;66.70;;;;;;5104083;28;20024;-68
2022/10/29 06:53:54;;;;;;;12.45;6.35;;;23.00;67.10;;;;;;5107927;28;20019;-70
2022/10/29 06:56:21;;;;;;;15.35;6.80;;;23.00;66.30;;;;;;5108865;28;20430;-70
2022/10/29 06:58:47;;;;;;;11.90;6.45;;;23.10;66.30;;;;;;5105590;28;20044;-71
2022/10/29 07:01:14;;;;;;;20.35;6.47;;;23.10;66.20;;;;;;5103306;28;20020;-68
2022/10/29 07:03:40;;;;;;;19.15;5.35;;;23.20;66.30;;;;;;5108748;28;20027;-71
2022/10/29 07:06:07;;;;;;;11.90;4.95;;;23.20;66.40;;;;;;5104918;28;20043;-71
2022/10/29 07:08:33;;;;;;;11.88;3.85;;;23.30;66.30;;;;;;5103903;28;20094;-70
2022/10/29 07:11:01;;;;;;;10.57;4.47;;;23.30;66.00;;;;;;5104481;28;20426;-71
2022/10/29 07:13:28;;;;;;;8.13;3.08;;;23.40;65.90;;;;;;5108463;28;20026;-70
2022/10/29 07:15:54;;;;;;;13.70;3.33;;;23.40;64.90;;;;;;5109092;28;20028;-69
2022/10/29 07:18:21;;;;;;;11.77;5.03;;;23.40;65.00;;;;;;5107731;28;20050;-67
2022/10/29 07:20:47;;;;;;;10.00;4.78;;;23.50;65.00;;;;;;5107756;28;20016;-70
2022/10/29 07:23:14;;;;;;;12.63;4.97;;;23.50;64.80;;;;;;5106898;28;20030;-70
2022/10/29 07:25:41;;;;;;;15.73;5.53;;;23.50;64.60;;;;;;5108021;28;20024;-70
2022/10/29 07:28:13;;;;;;;16.20;4.47;;;23.60;64.60;;;;;;5105547;28;20028;-70
2022/10/29 07:30:40;;;;;;;10.75;3.97;;;23.60;64.50;;;;;;5108033;28;20028;-70
2022/10/29 07:33:07;;;;;;;18.83;4.20;;;23.60;65.10;;;;;;5109981;28;20031;-71
2022/10/29 07:35:34;;;;;;;16.63;4.95;;;23.70;64.40;;;;;;5101645;28;20020;-69
2022/10/29 07:38:05;;;;;;;9.55;3.70;;;23.70;64.50;;;;;;5104291;28;20498;-69
2022/10/29 07:40:32;;;;;;;11.13;4.55;;;23.80;64.50;;;;;;5102631;28;20030;-69
2022/10/29 07:42:59;;;;;;;18.42;4.38;;;23.80;64.60;;;;;;5107658;28;20027;-70
2022/10/29 07:45:25;;;;;;;54.40;6.00;;;23.80;64.50;;;;;;5108024;28;20040;-70
2022/10/29 07:48:04;;;;;;;15.23;3.67;;;23.90;64.50;;;;;;5102042;28;20522;-71
2022/10/29 07:50:31;;;;;;;12.93;4.50;;;23.90;64.40;;;;;;5105892;28;20017;-70
2022/10/29 07:53:01;;;;;;;18.95;4.85;;;24.00;64.30;;;;;;5105357;28;20015;-70
2022/10/29 07:55:28;;;;;;;16.75;4.65;;;24.10;64.30;;;;;;5099139;28;20043;-69
2022/10/29 07:58:00;;;;;;;19.83;5.68;;;24.10;64.20;;;;;;5102177;28;20039;-69
2022/10/29 08:00:27;;;;;;;22.77;5.38;;;24.20;64.00;;;;;;5103638;28;20046;-70
2022/10/29 08:02:55;;;;;;;22.10;6.00;;;24.20;63.70;;;;;;5101376;28;20035;-69
2022/10/29 08:05:23;;;;;;;10.48;3.92;;;24.30;63.60;;;;;;5103952;28;20472;-70
2022/10/29 08:07:49;;;;;;;8.88;3.25;;;24.30;63.50;;;;;;5106422;28;20482;-70
2022/10/29 08:10:16;;;;;;;9.60;4.13;;;24.30;63.40;;;;;;5105553;28;20137;-70
2022/10/29 08:12:50;;;;;;;10.68;3.67;;;24.40;63.20;;;;;;5105645;28;20015;-70
2022/10/29 08:15:17;;;;;;;14.90;3.70;;;24.50;63.00;;;;;;5103560;28;20061;-69
2022/10/29 08:17:44;;;;;;;12.88;4.32;;;24.50;62.90;;;;;;5104836;28;20016;-69
2022/10/29 08:20:11;;;;;;;22.20;5.40;;;24.60;62.40;;;;;;5106033;28;20020;-70
2022/10/29 08:22:37;;;;;;;11.30;5.15;;;24.60;62.30;;;;;;5103171;28;20027;-71
2022/10/29 08:25:04;;;;;;;14.60;3.72;;;24.70;61.90;;;;;;5106302;28;20028;-69
2022/10/29 08:27:31;;;;;;;13.93;3.33;;;24.70;61.60;;;;;;5108793;28;20035;-69
2022/10/29 08:29:57;;;;;;;18.25;3.92;;;24.80;61.40;;;;;;5105805;28;20016;-69
2022/10/29 08:32:24;;;;;;;10.85;3.28;;;24.80;60.90;;;;;;5104326;28;20028;-70
2022/10/29 08:34:50;;;;;;;29.90;4.57;;;24.90;60.90;;;;;;5106232;28;20018;-69
2022/10/29 08:37:16;;;;;;;18.52;4.90;;;25.00;60.60;;;;;;5102972;28;20111;-70
2022/10/29 08:39:44;;;;;;;7.88;3.40;;;25.00;60.50;;;;;;5099625;28;20380;-69
2022/10/29 08:42:33;;;;;;;14.48;4.85;;;25.00;60.60;;;;;;5107371;28;20028;-69
2022/10/29 08:45:21;;;;;;;14.35;3.72;;;25.10;60.40;;;;;;5065801;28;20406;-70
2022/10/29 08:48:19;;;;;;;9.20;3.63;;;25.20;60.00;;;;;;5103857;28;20115;-70
2022/10/29 08:50:56;;;;;;;11.57;4.15;;;25.20;59.70;;;;;;5082912;28;20024;-69
2022/10/29 08:53:29;;;;;;;11.50;4.07;;;25.30;59.30;;;;;;5100304;28;20035;-68
2022/10/29 08:55:55;;;;;;;11.73;4.03;;;25.30;59.30;;;;;;5106995;28;20019;-69
2022/10/29 08:58:56;;;;;;;11.02;4.57;;;25.40;59.30;;;;;;5104398;28;20044;-70
2022/10/29 09:01:23;;;;;;;12.07;3.08;;;25.50;59.20;;;;;;5098739;28;20061;-70
2022/10/29 09:03:50;;;;;;;28.90;6.20;;;25.60;58.70;;;;;;5104660;28;20016;-69
2022/10/29 09:06:33;;;;;;;14.50;4.55;;;25.70;58.60;;;;;;5106339;28;20371;-70
2022/10/29 09:09:18;;;;;;;18.27;4.43;;;25.70;58.50;;;;;;5106041;28;20023;-69
2022/10/29 09:12:30;;;;;;;11.52;3.50;;;25.80;58.50;;;;;;5105174;28;20016;-69
2022/10/29 09:15:18;;;;;;;7.72;3.47;;;25.80;58.30;;;;;;5102099;28;20023;-69
2022/10/29 09:18:06;;;;;;;10.48;3.55;;;26.00;58.30;;;;;;5106189;28;20099;-68
2022/10/29 09:20:51;;;;;;;7.85;3.17;;;26.00;57.70;;;;;;5101675;28;20028;-67
2022/10/29 09:23:40;;;;;;;11.05;3.17;;;26.10;57.50;;;;;;5107145;28;20035;-69
2022/10/29 09:26:30;;;;;;;19.38;6.90;;;26.20;57.00;;;;;;5107535;28;20027;-70
2022/10/29 09:29:21;;;;;;;15.23;4.10;;;26.20;57.90;;;;;;5102596;28;20028;-71
2022/10/29 09:31:57;;;;;;;18.52;5.30;;;26.30;58.00;;;;;;5103031;28;20433;-69
2022/10/29 09:34:46;;;;;;;13.57;5.07;;;26.30;58.10;;;;;;5105123;28;20410;-72
2022/10/29 09:37:41;;;;;;;13.50;5.72;;;26.40;58.10;;;;;;5100525;28;20023;-69
2022/10/29 09:40:41;;;;;;;14.90;3.90;;;26.40;57.90;;;;;;5074566;28;20394;-76
2022/10/29 09:43:33;;;;;;;11.00;5.60;;;26.40;57.20;;;;;;5030008;28;20447;-74
2022/10/29 09:46:21;;;;;;;17.05;3.47;;;26.40;56.90;;;;;;5103078;28;20027;-74
2022/10/29 09:49:19;;;;;;;15.85;4.95;;;26.50;56.40;;;;;;5099519;28;20028;-71
2022/10/29 09:52:06;;;;;;;26.33;8.18;;;26.50;55.90;;;;;;5085008;28;20035;-70
2022/10/29 09:54:33;;;;;;;31.35;6.72;;;26.50;56.20;;;;;;5104245;28;20027;-70
2022/10/29 09:57:01;;;;;;;369.85;64.38;;;26.50;58.20;;;;;;5105454;28;20079;-71
2022/10/29 09:59:39;;;;;;;148.07;24.00;;;26.60;58.30;;;;;;5105687;28;20031;-70
2022/10/29 10:02:25;;;;;;;35.35;10.73;;;26.70;59.10;;;;;;5103613;28;20058;-70
2022/10/29 10:04:56;;;;;;;24.73;7.72;;;26.70;58.10;;;;;;5104257;28;20028;-70
2022/10/29 10:07:22;;;;;;;27.60;7.85;;;26.80;58.70;;;;;;5098149;28;20024;-72
2022/10/29 10:09:58;;;;;;;24.13;5.18;;;26.80;59.40;;;;;;5106885;28;20074;-70
2022/10/29 10:12:35;;;;;;;14.05;5.30;;;26.80;59.00;;;;;;5098367;28;21036;-73
2022/10/29 10:15:29;;;;;;;17.30;5.55;;;26.80;59.30;;;;;;5101403;28;20032;-69
2022/10/29 10:18:02;;;;;;;19.20;5.35;;;26.80;58.60;;;;;;5102050;28;20039;-68
2022/10/29 10:20:44;;;;;;;16.13;4.60;;;26.70;58.20;;;;;;5106494;28;20050;-69
2022/10/29 10:23:39;;;;;;;15.80;5.60;;;26.70;58.20;;;;;;5104922;28;20016;-68
2022/10/29 10:26:25;;;;;;;8.60;3.47;;;26.70;58.10;;;;;;5104974;28;20043;-70
2022/10/29 10:29:10;;;;;;;8.82;4.10;;;26.80;57.30;;;;;;5106179;28;20051;-70
2022/10/29 10:31:37;;;;;;;11.32;3.58;;;26.80;56.70;;;;;;5106418;28;20446;-71
2022/10/29 10:34:15;;;;;;;10.30;3.88;;;26.90;56.50;;;;;;5101853;28;20153;-69
2022/10/29 10:36:45;;;;;;;7.28;2.92;;;26.90;56.10;;;;;;5103948;28;20026;-68
2022/10/29 10:39:28;;;;;;;7.97;3.78;;;27.00;55.90;;;;;;5103257;28;20055;-70
2022/10/29 10:42:00;;;;;;;18.45;3.72;;;27.00;55.60;;;;;;5101018;28;20486;-72
2022/10/29 10:44:28;;;;;;;9.30;5.20;;;27.00;55.60;;;;;;5105694;28;20390;-69
2022/10/29 10:46:57;;;;;;;16.08;4.18;;;27.00;55.10;;;;;;5100027;28;20047;-71
2022/10/29 10:49:36;;;;;;;9.95;3.08;;;27.10;54.80;;;;;;5099770;28;20157;-71
2022/10/29 10:52:13;;;;;;;9.48;3.17;;;27.10;54.50;;;;;;5101487;28;20024;-71
2022/10/29 10:54:45;;;;;;;6.47;3.40;;;27.20;53.80;;;;;;5101882;28;20028;-70
2022/10/29 10:57:11;;;;;;;14.80;3.30;;;27.30;53.70;;;;;;5109249;28;20536;-71
2022/10/29 10:59:41;;;;;;;8.43;3.13;;;27.30;53.50;;;;;;5103420;28;20024;-70
2022/10/29 11:02:22;;;;;;;12.52;4.30;;;27.40;52.80;;;;;;5106171;28;20056;-69
2022/10/29 11:04:56;;;;;;;8.70;2.80;;;27.40;52.40;;;;;;5107208;28;20032;-70
2022/10/29 11:07:29;;;;;;;8.43;3.95;;;27.40;51.90;;;;;;5105881;28;20047;-70
2022/10/29 11:09:58;;;;;;;20.00;4.28;;;27.40;51.60;;;;;;5105195;28;20099;-70
2022/10/29 11:12:41;;;;;;;9.88;3.08;;;27.40;51.50;;;;;;5103909;28;20030;-70
2022/10/29 11:15:36;;;;;;;7.80;3.55;;;27.50;51.50;;;;;;5104752;28;20026;-72
2022/10/29 11:18:15;;;;;;;;;;;27.50;51.40;;;;;;5021792;28;20044;-69
2022/10/29 11:20:49;;;;;;;10.20;3.85;;;27.60;51.10;;;;;;5104761;28;19935;-70
2022/10/29 11:23:51;;;;;;;9.40;3.65;;;27.70;51.00;;;;;;5103618;28;20020;-70
2022/10/29 11:26:25;;;;;;;5.38;2.25;;;27.70;50.90;;;;;;5109958;28;20066;-69
2022/10/29 11:28:56;;;;;;;4.85;1.80;;;27.70;50.60;;;;;;5102635;28;20055;-70
2022/10/29 11:31:45;;;;;;;13.10;2.95;;;27.70;50.70;;;;;;5105849;28;20027;-68
2022/10/29 11:34:16;;;;;;;7.13;2.47;;;27.80;50.50;;;;;;5105038;28;20012;-68
2022/10/29 11:37:07;;;;;;;4.65;1.80;;;27.80;50.30;;;;;;5106409;28;20116;-70
2022/10/29 11:39:55;;;;;;;4.53;2.00;;;27.90;50.20;;;;;;5088930;28;20045;-69
2022/10/29 11:42:21;;;;;;;6.50;2.28;;;28.10;50.00;;;;;;5107984;28;20031;-68
2022/10/29 11:44:48;;;;;;;5.07;2.58;;;28.10;49.80;;;;;;5107814;28;20103;-68
2022/10/29 11:47:40;;;;;;;5.82;1.98;;;28.10;49.90;;;;;;5107761;28;20364;-69
2022/10/29 11:50:48;;;;;;;8.43;2.38;;;28.20;49.90;;;;;;5102680;28;20031;-71
2022/10/29 11:53:38;;;;;;;35.58;31.25;;;28.20;49.00;;;;;;5107690;28;20023;-68
2022/10/29 11:56:35;;;;;;;14.50;12.18;;;28.30;48.90;;;;;;5102357;28;20115;-68
2022/10/29 11:59:11;;;;;;;17.02;9.02;;;28.40;48.60;;;;;;5101521;28;20043;-69
2022/10/29 12:01:55;;;;;;;16.73;7.18;;;28.50;49.70;;;;;;5106283;28;20051;-70
2022/10/29 12:04:59;;;;;;;19.70;5.95;;;28.50;51.10;;;;;;5102413;28;20015;-67
2022/10/29 12:08:07;;;;;;;11.85;4.75;;;28.50;52.20;;;;;;5038952;28;20086;-68
2022/10/29 12:10:49;;;;;;;21.10;4.78;;;28.50;52.80;;;;;;5105170;28;20112;-68
2022/10/29 12:13:23;;;;;;;16.25;5.68;;;28.50;53.20;;;;;;5108604;28;20019;-69
2022/10/29 12:16:12;;;;;;;15.13;3.83;;;28.50;53.30;;;;;;5106256;28;20051;-68
2022/10/29 12:18:46;;;;;;;13.90;4.40;;;28.50;53.50;;;;;;5103401;28;20030;-67
2022/10/29 12:21:21;;;;;;;14.48;4.70;;;28.60;53.70;;;;;;5107209;28;20020;-68
2022/10/29 12:24:26;;;;;;;15.82;4.10;;;28.50;53.80;;;;;;5100635;28;20102;-68
2022/10/29 12:27:12;;;;;;;10.68;4.30;;;28.50;53.90;;;;;;5072697;28;20441;-68
2022/10/29 12:29:58;;;;;;;13.63;4.13;;;28.50;54.00;;;;;;5100264;28;20035;-67
2022/10/29 12:32:49;;;;;;;17.58;4.15;;;28.50;54.00;;;;;;5105987;28;20115;-69
2022/10/29 12:35:19;;;;;;;22.80;4.82;;;28.40;54.00;;;;;;5105619;28;20024;-68
2022/10/29 12:37:48;;;;;;;13.55;3.85;;;28.40;54.10;;;;;;5107213;28;20016;-69
2022/10/29 12:40:23;;;;;;;10.93;3.45;;;28.30;54.30;;;;;;5105113;28;20023;-69
2022/10/29 12:42:50;;;;;;;;;;;28.30;54.30;;;;;;5101785;28;20044;-68
2022/10/29 12:45:40;;;;;;;15.73;4.05;;;28.20;54.30;;;;;;5105662;28;19907;-67
2022/10/29 12:48:17;;;;;;;19.55;4.28;;;28.30;54.40;;;;;;5105313;28;20843;-71
2022/10/29 12:50:49;;;;;;;14.70;5.72;;;28.30;54.40;;;;;;5103360;28;20665;-70
2022/10/29 12:53:56;;;;;;;12.90;7.45;;;28.20;54.40;;;;;;5106583;28;20024;-69
2022/10/29 12:56:23;;;;;;;13.80;5.03;;;28.20;54.50;;;;;;5067492;28;20045;-69
2022/10/29 12:58:58;;;;;;;12.95;5.05;;;28.20;54.50;;;;;;5105641;28;20394;-69
2022/10/29 13:01:27;;;;;;;12.80;4.25;;;28.20;54.50;;;;;;5102186;28;20096;-68
2022/10/29 13:03:53;;;;;;;11.98;4.85;;;28.20;54.50;;;;;;5107423;28;20032;-69
2022/10/29 13:06:41;;;;;;;14.38;4.63;;;28.20;54.60;;;;;;5100328;28;20034;-69
2022/10/29 13:09:19;;;;;;;12.88;4.93;;;28.20;54.50;;;;;;5104989;28;20028;-69
2022/10/29 13:11:49;;;;;;;9.55;4.32;;;28.10;54.50;;;;;;5106548;28;20081;-69
2022/10/29 13:14:28;;;;;;;11.38;3.47;;;28.10;54.60;;;;;;5098762;28;20510;-70
2022/10/29 13:16:55;;;;;;;14.13;4.28;;;28.10;54.60;;;;;;5101628;28;20024;-68
2022/10/29 13:19:36;;;;;;;11.32;4.65;;;28.10;54.70;;;;;;5105812;28;20103;-71
2022/10/29 13:22:16;;;;;;;15.82;3.55;;;28.10;54.70;;;;;;5102127;28;20139;-72